createdAt,value
2022-09-27T00:01:02.952Z,99376.81
2022-09-27T00:03:30.905Z,99381.22
2022-09-27T00:06:28.403Z,99371.72
2022-09-27T00:08:56.077Z,99367.41
2022-09-27T00:11:32.213Z,99366.66
2022-09-27T00:14:00.611Z,99365.78
2022-09-27T00:16:31.889Z,99353.69
2022-09-27T00:19:00.940Z,99352.84
2022-09-27T00:21:30.505Z,99342.53
2022-09-27T00:23:58.954Z,99342.63
2022-09-27T00:26:26.895Z,99343.59
2022-09-27T00:28:53.987Z,99333.28
2022-09-27T00:31:30.201Z,99329.81
2022-09-27T00:34:01.041Z,99337.72
2022-09-27T00:36:29.470Z,99339.53
2022-09-27T00:38:59.763Z,99331.78
2022-09-27T00:41:35.806Z,99320.41
2022-09-27T00:44:26.430Z,99320.50
2022-09-27T00:47:12.303Z,99308.34
2022-09-27T00:49:52.343Z,99307.63
2022-09-27T00:52:34.990Z,99306.88
2022-09-27T00:55:16.401Z,99306.13
2022-09-27T00:57:45.281Z,99297.56
2022-09-27T01:00:14.103Z,99301.13
2022-09-27T01:02:50.426Z,99296.84
2022-09-27T01:05:22.630Z,99304.78
2022-09-27T01:07:49.507Z,99303.13
2022-09-27T01:10:17.918Z,99291.00
2022-09-27T01:13:07.542Z,99293.69
2022-09-27T01:15:55.661Z,99291.06
2022-09-27T01:19:02.047Z,99291.09
2022-09-27T01:21:52.475Z,99294.69
2022-09-27T01:25:16.502Z,99292.06
2022-09-27T01:28:07.901Z,99286.84
2022-09-27T01:30:48.230Z,99281.66
2022-09-27T01:33:21.579Z,99283.22
2022-09-27T01:36:18.560Z,99279.75
2022-09-27T01:38:56.325Z,99278.81
2022-09-27T01:42:03.352Z,99271.75
2022-09-27T01:44:59.819Z,99270.03
2022-09-27T01:47:53.069Z,99273.53
2022-09-27T01:51:09.761Z,99265.69
2022-09-27T01:53:44.996Z,99262.13
2022-09-27T01:56:49.106Z,99260.53
2022-09-27T01:59:29.615Z,99263.78
2022-09-27T02:02:12.106Z,99247.25
2022-09-27T02:05:03.043Z,99254.16
2022-09-27T02:07:46.645Z,99250.56
2022-09-27T02:10:21.542Z,99255.06
2022-09-27T02:13:21.344Z,99245.44
2022-09-27T02:16:16.130Z,99247.13
2022-09-27T02:19:00.163Z,99241.00
2022-09-27T02:21:50.791Z,99236.66
2022-09-27T02:24:25.116Z,99234.03
2022-09-27T02:27:06.860Z,99235.75
2022-09-27T02:29:42.887Z,99234.00
2022-09-27T02:32:10.269Z,99231.31
2022-09-27T02:34:40.024Z,99225.22
2022-09-27T02:37:06.963Z,99226.00
2022-09-27T02:39:34.880Z,99218.16
2022-09-27T02:42:06.996Z,99212.06
2022-09-27T02:44:34.751Z,99219.81
2022-09-27T02:47:26.527Z,99214.63
2022-09-27T02:50:25.604Z,99210.28
2022-09-27T02:53:27.108Z,99210.28
2022-09-27T02:56:34.927Z,99212.91
2022-09-27T02:59:21.027Z,99205.03
2022-09-27T03:02:56.463Z,99192.78
2022-09-27T03:06:17.050Z,99193.72
2022-09-27T03:08:44.716Z,99183.22
2022-09-27T03:11:11.622Z,99191.06
2022-09-27T03:13:55.912Z,99191.94
2022-09-27T03:16:26.790Z,99191.09
2022-09-27T03:19:10.122Z,99184.09
2022-09-27T03:21:55.714Z,99185.84
2022-09-27T03:24:23.687Z,99188.47
2022-09-27T03:26:50.779Z,99181.53
2022-09-27T03:29:17.686Z,99178.97
2022-09-27T03:31:49.504Z,99177.25
2022-09-27T03:34:45.540Z,99175.63
2022-09-27T03:37:12.412Z,99172.91
2022-09-27T03:39:39.746Z,99170.38
2022-09-27T03:42:07.319Z,99168.59
2022-09-27T03:44:37.055Z,99173.00
2022-09-27T03:47:03.952Z,99161.59
2022-09-27T03:49:32.487Z,99165.06
2022-09-27T03:51:59.376Z,99164.22
2022-09-27T03:54:26.332Z,99158.13
2022-09-27T03:56:53.202Z,99160.75
2022-09-27T03:59:20.092Z,99151.09
2022-09-27T04:02:18.844Z,99156.41
2022-09-27T04:05:28.818Z,99146.88
2022-09-27T04:07:59.216Z,99145.19
2022-09-27T04:10:26.434Z,99137.38
2022-09-27T04:12:53.410Z,99145.19
2022-09-27T04:15:23.146Z,99135.81
2022-09-27T04:17:50.674Z,99144.34
2022-09-27T04:20:33.040Z,99143.53
2022-09-27T04:23:03.364Z,99140.91
2022-09-27T04:25:32.879Z,99140.91
2022-09-27T04:28:06.137Z,99138.31
2022-09-27T04:30:33.956Z,99128.97
2022-09-27T04:33:13.607Z,99129.81
2022-09-27T04:36:17.252Z,99136.66
2022-09-27T04:39:04.662Z,99132.53
2022-09-27T04:41:35.980Z,99142.00
2022-09-27T04:44:03.245Z,99137.63
2022-09-27T04:46:31.595Z,99133.22
2022-09-27T04:49:00.302Z,99131.41
2022-09-27T04:51:28.772Z,99141.84
2022-09-27T04:53:57.916Z,99140.00
2022-09-27T04:56:29.463Z,99135.63
2022-09-27T04:58:56.520Z,99138.13
2022-09-27T05:01:23.529Z,99132.03
2022-09-27T05:04:08.882Z,99137.28
2022-09-27T05:06:39.116Z,99129.47
2022-09-27T05:09:15.790Z,99137.19
2022-09-27T05:11:49.191Z,99141.59
2022-09-27T05:14:16.140Z,99132.09
2022-09-27T05:16:55.496Z,99133.06
2022-09-27T05:19:39.551Z,99131.41
2022-09-27T05:22:17.606Z,99138.41
2022-09-27T05:24:45.835Z,99131.66
2022-09-27T05:27:20.239Z,99133.22
2022-09-27T05:29:48.292Z,99132.38
2022-09-27T05:32:35.122Z,99139.44
2022-09-27T05:35:21.084Z,99126.63
2022-09-27T05:38:00.113Z,99130.03
2022-09-27T05:40:40.988Z,99130.91
2022-09-27T05:43:09.265Z,99130.94
2022-09-27T05:45:36.714Z,99129.19
2022-09-27T05:48:05.587Z,99122.22
2022-09-27T05:50:37.207Z,99122.22
2022-09-27T05:53:04.891Z,99130.09
2022-09-27T05:55:31.970Z,99123.09
2022-09-27T05:58:01.855Z,99119.69
2022-09-27T06:00:38.777Z,99123.97
2022-09-27T06:03:20.910Z,99124.84
2022-09-27T06:06:15.558Z,99122.31
2022-09-27T06:08:49.329Z,99124.94
2022-09-27T06:11:18.993Z,99124.94
2022-09-27T06:13:47.812Z,99124.06
2022-09-27T06:16:14.774Z,99130.16
2022-09-27T06:18:44.804Z,99122.31
2022-09-27T06:21:13.132Z,99123.16
2022-09-27T06:23:42.491Z,99120.59
2022-09-27T06:26:18.005Z,99123.16
2022-09-27T06:28:57.571Z,99124.84
2022-09-27T06:31:24.568Z,99121.34
2022-09-27T06:34:20.028Z,99125.78
2022-09-27T06:36:51.487Z,99128.44
2022-09-27T06:39:19.799Z,99121.34
2022-09-27T06:42:05.979Z,99122.19
2022-09-27T06:44:51.134Z,99120.38
2022-09-27T06:47:37.650Z,99123.00
2022-09-27T06:50:24.041Z,99108.41
2022-09-27T06:52:51.244Z,99124.63
2022-09-27T06:55:19.201Z,99115.72
2022-09-27T06:58:04.896Z,99127.94
2022-09-27T07:00:32.124Z,99120.88
2022-09-27T07:03:17.478Z,99118.47
2022-09-27T07:06:04.930Z,99130.47
2022-09-27T07:08:53.750Z,99125.25
2022-09-27T07:11:23.466Z,99138.13
2022-09-27T07:13:52.009Z,99126.03
2022-09-27T07:16:19.226Z,99131.84
2022-09-27T07:18:49.737Z,99130.41
2022-09-27T07:21:16.664Z,99129.91
2022-09-27T07:23:43.587Z,99134.19
2022-09-27T07:26:13.072Z,99133.28
2022-09-27T07:28:41.528Z,99141.00
2022-09-27T07:31:10.149Z,99136.56
2022-09-27T07:33:42.375Z,99134.66
2022-09-27T07:36:12.236Z,99136.41
2022-09-27T07:38:42.260Z,99133.66
2022-09-27T07:41:14.092Z,99133.53
2022-09-27T07:43:44.056Z,99144.59
2022-09-27T07:46:11.442Z,99133.97
2022-09-27T07:48:48.271Z,99131.22
2022-09-27T07:51:34.134Z,99126.50
2022-09-27T07:54:08.894Z,99134.16
2022-09-27T07:56:46.412Z,99128.72
2022-09-27T07:59:15.819Z,99126.81
2022-09-27T08:01:42.759Z,99128.44
2022-09-27T08:04:09.755Z,99133.56
2022-09-27T08:06:36.826Z,99128.13
2022-09-27T08:09:09.781Z,99130.63
2022-09-27T08:11:38.073Z,99141.72
2022-09-27T08:14:05.320Z,99136.53
2022-09-27T08:16:34.553Z,99143.41
2022-09-27T08:19:17.174Z,99145.19
2022-09-27T08:21:55.520Z,99145.19
2022-09-27T08:24:29.132Z,99151.28
2022-09-27T08:27:11.733Z,99145.19
2022-09-27T08:29:47.779Z,99145.06
2022-09-27T08:32:20.814Z,99155.50
2022-09-27T08:34:50.071Z,99150.13
2022-09-27T08:37:17.174Z,99132.56
2022-09-27T08:39:47.770Z,99132.13
2022-09-27T08:42:25.857Z,99146.81
2022-09-27T08:45:19.636Z,99143.06
2022-09-27T08:47:55.163Z,99139.34
2022-09-27T08:50:39.021Z,99139.34
2022-09-27T08:53:14.058Z,99131.47
2022-09-27T08:55:47.950Z,99132.22
2022-09-27T08:58:28.567Z,99130.59
2022-09-27T09:01:00.149Z,99122.72
2022-09-27T09:03:38.814Z,99090.75
2022-09-27T09:06:24.848Z,99128.97
2022-09-27T09:09:18.074Z,99142.72
2022-09-27T09:12:48.829Z,99140.88
2022-09-27T09:16:06.920Z,99136.41
2022-09-27T09:18:51.731Z,99132.66
2022-09-27T09:21:59.954Z,99134.09
2022-09-27T09:25:16.133Z,99133.84
2022-09-27T09:28:02.385Z,99135.28
2022-09-27T09:30:44.026Z,99136.84
2022-09-27T09:33:37.141Z,99126.97
2022-09-27T09:36:31.088Z,99133.03
2022-09-27T09:39:14.052Z,99129.47
2022-09-27T09:41:57.195Z,99130.94
2022-09-27T09:44:31.471Z,99127.63
2022-09-27T09:47:04.211Z,99130.09
2022-09-27T09:49:48.040Z,99135.50
2022-09-27T09:52:19.224Z,99127.69
2022-09-27T09:55:11.867Z,99122.72
2022-09-27T09:58:04.117Z,99133.28
2022-09-27T10:00:42.147Z,99129.03
2022-09-27T10:03:10.024Z,99135.97
2022-09-27T10:05:37.265Z,99137.69
2022-09-27T10:08:18.219Z,99135.91
2022-09-27T10:10:47.469Z,99146.22
2022-09-27T10:13:40.585Z,99137.34
2022-09-27T10:16:11.552Z,99123.91
2022-09-27T10:18:44.098Z,99122.78
2022-09-27T10:21:33.838Z,99120.81
2022-09-27T10:24:06.516Z,99120.56
2022-09-27T10:26:52.012Z,99115.88
2022-09-27T10:29:37.964Z,99118.25
2022-09-27T10:32:24.796Z,99121.41
2022-09-27T10:35:30.321Z,99115.00
2022-09-27T10:38:34.702Z,99112.38
2022-09-27T10:41:25.306Z,99120.19
2022-09-27T10:44:19.623Z,99111.63
2022-09-27T10:46:54.825Z,99114.50
2022-09-27T10:49:40.769Z,99117.13
2022-09-27T10:52:26.751Z,99127.19
2022-09-27T10:54:59.581Z,99121.84
2022-09-27T10:57:29.941Z,99125.00
2022-09-27T11:00:07.428Z,99120.63
2022-09-27T11:02:39.872Z,99116.09
2022-09-27T11:05:15.747Z,99115.25
2022-09-27T11:07:58.072Z,99113.34
2022-09-27T11:10:40.633Z,99109.72
2022-09-27T11:13:11.771Z,99104.44
2022-09-27T11:16:18.888Z,99107.97
2022-09-27T11:19:23.919Z,99102.88
2022-09-27T11:22:05.225Z,99097.56
2022-09-27T11:25:14.571Z,99102.81
2022-09-27T11:27:51.228Z,99095.66
2022-09-27T11:30:24.654Z,99092.75
2022-09-27T11:33:32.915Z,99091.53
2022-09-27T11:36:26.992Z,99091.97
2022-09-27T11:39:34.303Z,99092.44
2022-09-27T11:42:35.879Z,99096.44
2022-09-27T11:48:45.329Z,99094.28
2022-09-27T11:51:22.161Z,99092.13
2022-09-27T11:54:25.277Z,99104.00
2022-09-27T11:57:26.384Z,99092.22
2022-09-27T12:00:15.958Z,99087.53
2022-09-27T12:03:13.124Z,99082.84
2022-09-27T12:06:07.741Z,99087.97
2022-09-27T12:09:08.551Z,99091.19
2022-09-27T12:11:46.884Z,99092.81
2022-09-27T12:14:30.098Z,99093.59
2022-09-27T12:16:59.738Z,99098.78
2022-09-27T12:19:33.347Z,99094.38
2022-09-27T12:22:07.172Z,99096.66
2022-09-27T12:24:39.817Z,99093.94
2022-09-27T12:27:32.707Z,99086.22
2022-09-27T12:30:01.205Z,99080.78
2022-09-27T12:32:40.904Z,99077.97
2022-09-27T12:35:28.572Z,99078.13
2022-09-27T12:38:12.089Z,99079.31
2022-09-27T12:40:45.139Z,99074.06
2022-09-27T12:43:27.908Z,99078.47
2022-09-27T12:46:17.815Z,99085.78
2022-09-27T12:49:11.464Z,99083.88
2022-09-27T12:51:58.404Z,99089.25
2022-09-27T12:54:47.106Z,99085.78
2022-09-27T12:58:07.217Z,99087.47
2022-09-27T13:00:47.244Z,99102.50
2022-09-27T13:04:20.431Z,99105.38
2022-09-27T13:07:11.240Z,99123.94
2022-09-27T13:10:00.355Z,99115.50
2022-09-27T13:12:30.895Z,99126.53
2022-09-27T13:15:14.184Z,99132.59
2022-09-27T13:17:40.960Z,99135.91
2022-09-27T13:20:44.200Z,99135.28
2022-09-27T13:23:23.240Z,99140.19
2022-09-27T13:26:03.722Z,99146.84
2022-09-27T13:29:03.277Z,99141.47
2022-09-27T13:31:54.158Z,99146.16
2022-09-27T13:34:47.082Z,99145.78
2022-09-27T13:37:36.710Z,99141.66
2022-09-27T13:40:24.019Z,99147.97
2022-09-27T13:43:10.692Z,99145.28
2022-09-27T13:45:58.586Z,99142.44
2022-09-27T13:48:54.309Z,99142.84
2022-09-27T13:51:44.469Z,99149.63
2022-09-27T13:54:55.429Z,99146.81
2022-09-27T13:57:50.031Z,99149.94
2022-09-27T14:00:24.650Z,99158.50
2022-09-27T14:03:02.706Z,99152.13
2022-09-27T14:05:38.054Z,99159.66
2022-09-27T14:08:07.447Z,99157.53
2022-09-27T14:10:36.090Z,99158.00
2022-09-27T14:13:06.118Z,99160.44
2022-09-27T14:15:39.176Z,99168.00
2022-09-27T14:18:12.163Z,99166.25
2022-09-27T14:20:44.796Z,99177.63
2022-09-27T14:23:31.214Z,99175.84
2022-09-27T14:25:58.731Z,99168.09
2022-09-27T14:28:30.492Z,99172.66
2022-09-27T14:31:17.938Z,99178.06
2022-09-27T14:34:08.919Z,99170.53
2022-09-27T14:36:57.219Z,99169.88
2022-09-27T14:39:35.662Z,99180.63
2022-09-27T14:42:23.029Z,99176.44
2022-09-27T14:44:51.084Z,99172.09
2022-09-27T14:47:27.685Z,99169.59
2022-09-27T14:50:00.627Z,99169.81
2022-09-27T14:52:34.984Z,99161.34
2022-09-27T14:55:10.078Z,99170.47
2022-09-27T14:57:37.331Z,99169.72
2022-09-27T15:00:23.554Z,99166.47
2022-09-27T15:02:56.043Z,99172.66
2022-09-27T15:05:27.101Z,99176.38
2022-09-27T15:07:55.836Z,99166.00
2022-09-27T15:10:31.281Z,99180.78
2022-09-27T15:13:01.382Z,99178.34
2022-09-27T15:15:32.801Z,99186.38
2022-09-27T15:18:00.956Z,99174.09
2022-09-27T15:20:35.441Z,99184.53
2022-09-27T15:23:05.955Z,99175.72
2022-09-27T15:25:43.764Z,99185.34
2022-09-27T15:28:19.182Z,99186.19
2022-09-27T15:30:58.303Z,99196.56
2022-09-27T15:33:34.131Z,99201.75
2022-09-27T15:36:06.157Z,99204.28
2022-09-27T15:38:35.794Z,99198.13
2022-09-27T15:41:08.374Z,99210.34
2022-09-27T15:43:47.731Z,99216.66
2022-09-27T15:46:29.355Z,99206.28
2022-09-27T15:49:35.103Z,99213.59
2022-09-27T15:52:05.078Z,99206.59
2022-09-27T15:54:35.629Z,99214.59
2022-09-27T15:57:05.711Z,99217.41
2022-09-27T15:59:35.441Z,99218.53
2022-09-27T16:02:17.326Z,99218.59
2022-09-27T16:04:45.121Z,99217.03
2022-09-27T16:07:14.939Z,99224.84
2022-09-27T16:09:43.485Z,99226.69
2022-09-27T16:12:10.328Z,99237.19
2022-09-27T16:14:37.167Z,99233.78
2022-09-27T16:17:04.014Z,99236.47
2022-09-27T16:19:30.858Z,99243.63
2022-09-27T16:21:57.764Z,99242.97
2022-09-27T16:24:25.504Z,99244.94
2022-09-27T16:26:52.374Z,99247.75
2022-09-27T16:29:19.217Z,99242.63
2022-09-27T16:31:46.421Z,99256.72
2022-09-27T16:34:13.620Z,99254.22
2022-09-27T16:36:40.952Z,99256.78
2022-09-27T16:39:12.771Z,99260.53
2022-09-27T16:41:43.818Z,99251.00
2022-09-27T16:44:13.556Z,99264.03
2022-09-27T16:46:42.419Z,99261.56
2022-09-27T16:49:29.419Z,99262.47
2022-09-27T16:52:02.012Z,99265.34
2022-09-27T16:54:29.929Z,99267.16
2022-09-27T16:56:58.286Z,99271.69
2022-09-27T16:59:25.855Z,99273.63
2022-09-27T17:01:57.209Z,99268.53
2022-09-27T17:04:28.592Z,99274.00
2022-09-27T17:06:56.956Z,99274.06
2022-09-27T17:09:24.547Z,99272.34
2022-09-27T17:11:51.814Z,99275.09
2022-09-27T17:14:18.861Z,99276.06
2022-09-27T17:16:47.683Z,99273.63
2022-09-27T17:19:16.361Z,99277.19
2022-09-27T17:21:43.581Z,99279.06
2022-09-27T17:24:10.613Z,99274.91
2022-09-27T17:26:38.120Z,99279.38
2022-09-27T17:29:04.994Z,99277.75
2022-09-27T17:31:34.754Z,99256.53
2022-09-27T17:34:02.826Z,99275.59
2022-09-27T17:36:33.558Z,99271.44
2022-09-27T17:39:01.583Z,99273.38
2022-09-27T17:41:29.999Z,99272.75
2022-09-27T17:43:59.448Z,99278.16
2022-09-27T17:46:32.402Z,99281.03
2022-09-27T17:49:18.380Z,99282.09
2022-09-27T17:51:53.271Z,99277.03
2022-09-27T17:54:23.306Z,99287.69
2022-09-27T17:56:51.171Z,99286.91
2022-09-27T17:59:18.899Z,99284.38
2022-09-27T18:01:47.721Z,99287.09
2022-09-27T18:04:17.587Z,99279.34
2022-09-27T18:06:46.582Z,99287.38
2022-09-27T18:09:16.361Z,99286.56
2022-09-27T18:11:44.830Z,99289.34
2022-09-27T18:14:12.302Z,99286.81
2022-09-27T18:16:43.031Z,99294.75
2022-09-27T18:19:16.666Z,99294.06
2022-09-27T18:21:44.158Z,99297.69
2022-09-27T18:24:11.639Z,99308.31
2022-09-27T18:26:40.101Z,99305.78
2022-09-27T18:29:11.958Z,99316.47
2022-09-27T18:31:40.198Z,99313.00
2022-09-27T18:34:07.769Z,99301.88
2022-09-27T18:36:35.076Z,99305.34
2022-09-27T18:39:05.871Z,99310.69
2022-09-27T18:41:34.192Z,99309.88
2022-09-27T18:44:04.251Z,99309.97
2022-09-27T18:46:36.913Z,99317.16
2022-09-27T18:49:07.432Z,99317.97
2022-09-27T18:51:37.355Z,99315.47
2022-09-27T18:54:14.491Z,99321.66
2022-09-27T18:56:41.561Z,99324.25
2022-09-27T18:59:10.038Z,99320.78
2022-09-27T19:01:40.530Z,99324.28
2022-09-27T19:04:09.339Z,99324.38
2022-09-27T19:06:38.008Z,99320.94
2022-09-27T19:09:06.955Z,99322.84
2022-09-27T19:11:34.866Z,99326.34
2022-09-27T19:14:02.150Z,99335.09
2022-09-27T19:16:29.654Z,99334.28
2022-09-27T19:18:56.929Z,99330.09
2022-09-27T19:21:27.109Z,99342.34
2022-09-27T19:23:54.251Z,99342.34
2022-09-27T19:26:25.199Z,99341.53
2022-09-27T19:28:52.355Z,99343.22
2022-09-27T19:31:25.068Z,99345.00
2022-09-27T19:33:57.511Z,99351.06
2022-09-27T19:36:27.252Z,99345.81
2022-09-27T19:38:56.255Z,99344.03
2022-09-27T19:41:23.149Z,99332.97
2022-09-27T19:43:54.683Z,99351.03
2022-09-27T19:46:23.192Z,99343.22
2022-09-27T19:48:51.310Z,99348.41
2022-09-27T19:51:24.899Z,99345.91
2022-09-27T19:53:53.158Z,99344.88
2022-09-27T19:56:20.208Z,99353.53
2022-09-27T19:58:47.354Z,99350.84
2022-09-27T20:01:25.252Z,99362.16
2022-09-27T20:03:55.673Z,99345.56
2022-09-27T20:06:22.577Z,99356.78
2022-09-27T20:08:49.656Z,99345.44
2022-09-27T20:11:22.954Z,99351.47
2022-09-27T20:13:52.390Z,99354.09
2022-09-27T20:16:23.677Z,99359.25
2022-09-27T20:18:53.550Z,99346.19
2022-09-27T20:21:22.394Z,99354.03
2022-09-27T20:23:52.191Z,99355.75
2022-09-27T20:26:22.566Z,99354.84
2022-09-27T20:28:52.430Z,99350.53
2022-09-27T20:31:24.834Z,99351.38
2022-09-27T20:33:52.184Z,99351.31
2022-09-27T20:36:21.041Z,99342.63
2022-09-27T20:38:51.268Z,99354.84
2022-09-27T20:41:21.689Z,99357.47
2022-09-27T20:43:55.072Z,99352.22
2022-09-27T20:46:24.398Z,99352.22
2022-09-27T20:48:54.308Z,99358.31
2022-09-27T20:51:22.137Z,99359.16
2022-09-27T20:53:51.327Z,99367.13
2022-09-27T20:56:27.214Z,99357.56
2022-09-27T20:58:56.620Z,99362.84
2022-09-27T21:01:25.117Z,99362.88
2022-09-27T21:04:00.090Z,99362.97
2022-09-27T21:06:28.188Z,99360.41
2022-09-27T21:08:55.523Z,99363.06
2022-09-27T21:11:22.783Z,99356.16
2022-09-27T21:13:51.043Z,99371.91
2022-09-27T21:16:22.232Z,99371.13
2022-09-27T21:18:54.309Z,99377.19
2022-09-27T21:21:22.889Z,99370.22
2022-09-27T21:23:56.374Z,99367.63
2022-09-27T21:26:24.731Z,99367.78
2022-09-27T21:28:54.504Z,99378.19
2022-09-27T21:31:25.604Z,99379.19
2022-09-27T21:33:55.716Z,99379.13
2022-09-27T21:36:24.717Z,99380.03
2022-09-27T21:38:51.600Z,99379.13
2022-09-27T21:41:19.094Z,99379.97
2022-09-27T21:43:47.831Z,99374.72
2022-09-27T21:46:23.271Z,99377.31
2022-09-27T21:48:54.627Z,99380.75
2022-09-27T21:51:28.549Z,99376.50
2022-09-27T21:53:58.743Z,99385.16
2022-09-27T21:56:31.168Z,99379.03
2022-09-27T21:58:58.283Z,99374.63
2022-09-27T22:01:31.535Z,99379.84
2022-09-27T22:03:59.963Z,99377.19
2022-09-27T22:06:31.040Z,99384.09
2022-09-27T22:08:59.589Z,99381.47
2022-09-27T22:11:30.409Z,99385.03
2022-09-27T22:13:57.786Z,99383.25
2022-09-27T22:16:30.105Z,99388.41
2022-09-27T22:18:57.632Z,99384.94
2022-09-27T22:21:28.611Z,99387.53
2022-09-27T22:23:57.406Z,99381.38
2022-09-27T22:26:29.319Z,99388.41
2022-09-27T22:28:56.941Z,99385.81
2022-09-27T22:31:24.178Z,99386.66
2022-09-27T22:33:53.716Z,99386.66
2022-09-27T22:36:21.408Z,99372.81
2022-09-27T22:38:49.351Z,99376.25
2022-09-27T22:41:16.414Z,99378.91
2022-09-27T22:43:43.810Z,99379.81
2022-09-27T22:46:10.739Z,99367.63
2022-09-27T22:48:37.656Z,99372.91
2022-09-27T22:51:07.357Z,99376.41
2022-09-27T22:53:35.050Z,99372.09
2022-09-27T22:56:13.559Z,99378.25
2022-09-27T22:58:42.257Z,99380.84
2022-09-27T23:01:20.631Z,99377.38
2022-09-27T23:03:49.785Z,99379.97
2022-09-27T23:06:19.184Z,99379.13
2022-09-27T23:08:47.350Z,99374.81
2022-09-27T23:11:17.876Z,99376.59
2022-09-27T23:13:45.684Z,99377.53
2022-09-27T23:16:25.019Z,99378.41
2022-09-27T23:18:56.973Z,99368.06
2022-09-27T23:21:26.000Z,99370.66
2022-09-27T23:23:56.018Z,99376.78
2022-09-27T23:26:26.419Z,99366.28
2022-09-27T23:29:01.088Z,99375.81
2022-09-27T23:31:30.502Z,99371.50
2022-09-27T23:33:59.289Z,99377.56
2022-09-27T23:36:27.520Z,99371.41
2022-09-27T23:38:58.753Z,99370.66
2022-09-27T23:41:26.068Z,99371.50
2022-09-27T23:43:54.168Z,99368.06
2022-09-27T23:46:21.294Z,99377.56
2022-09-27T23:48:48.356Z,99381.06
2022-09-27T23:51:15.305Z,99376.75
2022-09-27T23:53:42.232Z,99379.38
2022-09-27T23:56:15.067Z,99379.38
2022-09-27T23:58:44.437Z,99379.38
